Haukur — OZ2119 — position and weather

sailwx.info

Track history (hours):
 
Tides and Currents Weather Stations Pressure Air Temp Water Temp Dewpoint Dewpoint Depression Visibility Wind Speed Wind Dir Waves Ship Positions

Haukur

Last reported at 2014-Sep-28 01:33 UTC. Time now 2014-Oct-01 04:06 UTC.
Position N 63°40' W 022°05'.

Length 75 m; draft 6.2 m.

Type: Cargo ship. MMSI: 231812000.

Date/timePositionNaut miles runAvg speedWind from/ knotsBaromVisibWave heightAir tempDewpointWater temp
2014-Sep-28 01:33N 63°40' W 022°05'9 9.2
2014-Sep-28 00:33N 63°42' W 022°25'28 6.5
2014-Sep-27 20:11N 64°08' W 022°52'4 7.1
2014-Sep-27 19:33N 64°09' W 022°42'8 8.2
2014-Sep-27 18:32N 64°02' W 022°32'3 2.3
2014-Sep-27 17:13N 63°59' W 022°32'0 0.0
2014-Sep-27 16:31N 63°59' W 022°32'0 0.0
2014-Sep-27 15:06N 63°59' W 022°32'0 0.0
2014-Sep-27 14:18N 63°59' W 022°32'0 0.0
2014-Sep-27 13:30N 63°59' W 022°32'0 0.0
2014-Sep-27 11:30N 63°59' W 022°32'0 0.0
2014-Sep-27 08:30N 63°59' W 022°32'0 0.0
2014-Sep-27 07:30N 63°59' W 022°32'0 0.0
2014-Sep-27 06:30N 63°59' W 022°32'3 3.3
2014-Sep-27 05:33N 64°01' W 022°26'10 9.6
2014-Sep-27 04:33N 64°04' W 022°06'3 3.3
2014-Sep-27 03:31N 64°04' W 021°58'0 0.0
2014-Sep-27 02:31N 64°04' W 021°58'0 0.0
2014-Sep-27 01:28N 64°04' W 021°58'0 0.0
2014-Sep-27 00:31N 64°04' W 021°58'0 0.0
2014-Sep-26 23:31N 64°04' W 021°58'0 0.0
2014-Sep-26 22:31N 64°04' W 021°58'0 0.0
2014-Sep-26 21:31N 64°04' W 021°58'0 0.0
2014-Sep-26 20:31N 64°04' W 021°58'0 0.0
2014-Sep-26 19:31N 64°04' W 021°58'0 0.0
2014-Sep-26 18:31N 64°04' W 021°58'0 0.0
2014-Sep-26 17:31N 64°04' W 021°58'0 0.0
2014-Sep-26 16:31N 64°04' W 021°58'0 0.0
2014-Sep-26 15:31N 64°04' W 021°58'1 0.6
2014-Sep-26 14:33N 64°04' W 021°59'8 8.4
2014-Sep-26 13:33N 64°07' W 022°17'9 8.8
2014-Sep-26 12:33N 64°12' W 022°34'9 8.5
2014-Sep-26 11:32N 64°17' W 022°49'50 8.3
2014-Sep-26 05:28N 64°54' W 024°08'8 7.9
2014-Sep-26 04:30N 65°02' W 024°13'8 8.1
2014-Sep-26 03:33N 65°09' W 024°18'9 8.4
2014-Sep-26 02:32N 65°17' W 024°24'12 8.9
2014-Sep-26 01:14N 65°28' W 024°34'  
2014-Sep-18 02:33N 63°12' E 006°26'  
Track history (hours):
 
Tides and Currents Weather Stations Pressure Air Temp Water Temp Dewpoint Dewpoint Depression Visibility Wind Speed Wind Dir Waves Ship Positions

Haukur

Last reported at 2014-Sep-28 01:33 UTC. Time now 2014-Oct-01 04:06 UTC.
Position N 63°40' W 022°05'.

Length 75 m; draft 6.2 m.

Type: Cargo ship. MMSI: 231812000.

Date/timePositionNaut miles runAvg speedWind from/ knotsBaromVisibWave heightAir tempDewpointWater temp
2014-Sep-28 01:33N 63°40' W 022°05'9 9.2
2014-Sep-28 00:33N 63°42' W 022°25'28 6.5
2014-Sep-27 20:11N 64°08' W 022°52'4 7.1
2014-Sep-27 19:33N 64°09' W 022°42'8 8.2
2014-Sep-27 18:32N 64°02' W 022°32'3 2.3
2014-Sep-27 17:13N 63°59' W 022°32'0 0.0
2014-Sep-27 16:31N 63°59' W 022°32'0 0.0
2014-Sep-27 15:06N 63°59' W 022°32'0 0.0
2014-Sep-27 14:18N 63°59' W 022°32'0 0.0
2014-Sep-27 13:30N 63°59' W 022°32'0 0.0
2014-Sep-27 11:30N 63°59' W 022°32'0 0.0
2014-Sep-27 08:30N 63°59' W 022°32'0 0.0
2014-Sep-27 07:30N 63°59' W 022°32'0 0.0
2014-Sep-27 06:30N 63°59' W 022°32'3 3.3
2014-Sep-27 05:33N 64°01' W 022°26'10 9.6
2014-Sep-27 04:33N 64°04' W 022°06'3 3.3
2014-Sep-27 03:31N 64°04' W 021°58'0 0.0
2014-Sep-27 02:31N 64°04' W 021°58'0 0.0
2014-Sep-27 01:28N 64°04' W 021°58'0 0.0
2014-Sep-27 00:31N 64°04' W 021°58'0 0.0
2014-Sep-26 23:31N 64°04' W 021°58'0 0.0
2014-Sep-26 22:31N 64°04' W 021°58'0 0.0
2014-Sep-26 21:31N 64°04' W 021°58'0 0.0
2014-Sep-26 20:31N 64°04' W 021°58'0 0.0
2014-Sep-26 19:31N 64°04' W 021°58'0 0.0
2014-Sep-26 18:31N 64°04' W 021°58'0 0.0
2014-Sep-26 17:31N 64°04' W 021°58'0 0.0
2014-Sep-26 16:31N 64°04' W 021°58'0 0.0
2014-Sep-26 15:31N 64°04' W 021°58'1 0.6
2014-Sep-26 14:33N 64°04' W 021°59'8 8.4
2014-Sep-26 13:33N 64°07' W 022°17'9 8.8
2014-Sep-26 12:33N 64°12' W 022°34'9 8.5
2014-Sep-26 11:32N 64°17' W 022°49'50 8.3
2014-Sep-26 05:28N 64°54' W 024°08'8 7.9
2014-Sep-26 04:30N 65°02' W 024°13'8 8.1
2014-Sep-26 03:33N 65°09' W 024°18'9 8.4
2014-Sep-26 02:32N 65°17' W 024°24'12 8.9
2014-Sep-26 01:14N 65°28' W 024°34'  
2014-Sep-18 02:33N 63°12' E 006°26'  

Dump ship's entire track history